Flight Track Log - Related Links

Times and Time Zones

All times are in EDT time to prevent confusion due to time zone crossing. See the MAS370 flight status page for this flight to view local times or setup timezone preferences in your user account.

Time Position Orientation Groundspeed Altitude Reporting Facility
EDT Latitude Longitude Course Direction KTS MPH feet Rate Location/Type
Wed 12:43:50 PM 2.8340 101.6670 327° Northwest 200 230 1,800  Level FlightAware ADS-B
Wed 12:44:25 PM 2.8770 101.6480 336° Northwest 249 287 3,200 1,781 Climbing FlightAware ADS-B
Wed 12:44:54 PM 2.9060 101.6560 15° North 269 310 3,700 667 Climbing FlightAware ADS-B
Wed 12:45:19 PM 2.9320 101.6690 27° Northeast 295 339 3,800 590 Climbing FlightAware ADS-B
Wed 12:45:55 PM 2.9870 101.6950 25° Northeast 339 390 4,300 750 Climbing FlightAware ADS-B
Wed 12:46:07 PM 3.0040 101.7030 25° Northeast 353 406 4,400 1,571 Climbing FlightAware ADS-B
Wed 12:46:37 PM 3.0520 101.7260 26° Northeast 363 418 5,400 1,882 Climbing FlightAware ADS-B
Wed 12:46:58 PM 3.0820 101.7410 27° Northeast 367 422 6,000 2,000 Climbing FlightAware ADS-B
Wed 12:47:13 PM 3.1050 101.7520 26° Northeast 368 423 6,600 2,000 Climbing FlightAware ADS-B
Wed 12:47:43 PM 3.1540 101.7750 25° Northeast 372 428 7,500 1,750 Climbing FlightAware ADS-B
Wed 12:48:25 PM 3.2130 101.8030 25° Northeast 382 440 8,700 1,831 Climbing FlightAware ADS-B
Wed 12:48:42 PM 3.2500 101.8210 26° Northeast 386 444 9,300 1,610 Climbing FlightAware ADS-B
Wed 12:49:06 PM 3.2830 101.8360 24° Northeast 390 449 9,800 2,028 Climbing FlightAware ADS-B
Wed 12:49:53 PM 3.3650 101.8760 26° Northeast 388 447 11,700 2,460 Climbing FlightAware ADS-B
Wed 12:50:46 PM 3.4510 101.9170 25° Northeast 397 457 13,900 2,362 Climbing FlightAware ADS-B
Wed 12:51:27 PM 3.5220 101.9510 26° Northeast 412 474 15,400 2,143 Climbing FlightAware ADS-B
Wed 12:52:10 PM 3.5920 101.9840 25° Northeast 422 486 16,900 2,114 Climbing FlightAware ADS-B
Wed 12:52:55 PM 3.6750 102.0230 25° Northeast 434 499 18,500 2,100 Climbing FlightAware ADS-B
Wed 12:53:30 PM 3.7320 102.0500 25° Northeast 437 503 19,700 1,084 Climbing FlightAware ADS-B
Wed 12:54:18 PM 3.8050 102.0850 26° Northeast 437 503 20,000 217 Climbing FlightAware ADS-B
Wed 12:54:53 PM 3.8600 102.1100 24° Northeast 437 503 20,000  Level FlightAware ADS-B
Wed 12:55:41 PM 3.9350 102.1450 25° Northeast 437 503 20,000  Level FlightAware ADS-B
Wed 12:56:17 PM 3.9910 102.1710 25° Northeast 437 503 20,000  Level FlightAware ADS-B
Wed 12:57:05 PM 4.0650 102.2060 25° Northeast 437 503 20,000 5,087 Level FlightAware ADS-B
Wed 12:57:49 PM 4.2370 102.2910 26° Northeast 463 533 27,800 6,212 Climbing FlightAware ADS-B
Wed 12:58:30 PM 4.3180 102.3300 26° Northeast 467 537 28,800 1,342 Climbing FlightAware ADS-B
Wed 12:59:05 PM 4.3820 102.3600 25° Northeast 469 540 29,500 1,214 Climbing FlightAware ADS-B
Wed 12:59:54 PM 4.4890 102.4110 25° Northeast 475 547 30,500 1,071 Climbing FlightAware ADS-B
Wed 01:00:29 PM 4.5510 102.4410 26° Northeast 481 554 31,000 706 Climbing FlightAware ADS-B
Wed 01:01:19 PM 4.6560 102.4910 25° Northeast 493 567 31,500 725 Climbing FlightAware ADS-B
Wed 01:02:00 PM 4.7330 102.5280 26° Northeast 497 572 32,100 1,259 Climbing FlightAware ADS-B
Wed 01:02:40 PM 4.8210 102.5700 25° Northeast 493 567 33,200 1,443 Climbing FlightAware ADS-B
Wed 01:03:19 PM 4.9100 102.6130 26° Northeast 491 565 34,000 1,214 Climbing FlightAware ADS-B
Wed 01:04:04 PM 4.9950 102.6530 25° Northeast 489 563 34,900 1,533 Climbing FlightAware ADS-B
Wed 01:04:49 PM 5.0930 102.7000 26° Northeast 472 543 36,300 1,575 Climbing FlightAware ADS-B
Wed 01:05:24 PM 5.1520 102.7280 25° Northeast 462 532 37,000 420 Climbing FlightAware ADS-B
Wed 01:06:29 PM 5.2750 102.7860 25° Northeast 458 527 37,000  Level FlightAware ADS-B
Wed 01:06:57 PM 5.3320 102.8140 26° Northeast 457 526 37,000  Level FlightAware ADS-B
Wed 01:07:36 PM 5.2880 102.7930 205° Southwest 456 525 37,000  Level FlightAware ADS-B
Wed 01:08:16 PM 5.3530 102.8240 25° Northeast 456 525 37,000  Level FlightAware ADS-B
Wed 01:08:54 PM 5.5560 102.9220 26° Northeast 457 526 37,000  Level FlightAware ADS-B
Wed 01:09:45 PM 5.6570 102.9700 25° Northeast 457 526 37,000  Level FlightAware ADS-B
Wed 01:10:20 PM 5.7250 103.0020 25° Northeast 458 527 37,000  Level FlightAware ADS-B
Wed 01:11:05 PM 5.8120 103.0440 26° Northeast 458 527 37,000  Level FlightAware ADS-B
Wed 01:11:50 PM 5.9000 103.0860 25° Northeast 458 527 37,000  Level FlightAware ADS-B
Wed 01:12:25 PM 5.9660 103.1180 26° Northeast 458 527 37,000  Level FlightAware ADS-B
Wed 01:13:12 PM 6.0510 103.1590 26° Northeast 458 527 37,000  Level FlightAware ADS-B
Wed 01:13:52 PM 6.1330 103.1990 26° Northeast 458 527 37,000  Level FlightAware ADS-B
Wed 01:14:32 PM 6.2070 103.2340 25° Northeast 458 527 37,000  Level FlightAware ADS-B
Wed 01:15:17 PM 6.2970 103.2770 25° Northeast 458 527 37,000  Level FlightAware ADS-B
Wed 01:16:15 PM 6.3950 103.3240 25° Northeast 458 527 37,000  Level FlightAware ADS-B
Wed 01:16:49 PM 6.4640 103.3580 26° Northeast 457 526 37,000  Level FlightAware ADS-B
Wed 01:18:24 PM 6.5460 103.3960 25° Northeast 457 526 37,000  Level FlightAware ADS-B
Wed 01:18:58 PM 6.6010 103.4220 25° Northeast 457 526 37,000  Level FlightAware ADS-B
Wed 01:19:46 PM 6.6790 103.4580 25° Northeast 457 526 37,000  Level FlightAware ADS-B
Wed 01:20:21 PM 6.7360 103.4850 25° Northeast 457 526 37,000  Level FlightAware ADS-B
Wed 01:21:02 PM 6.8030 103.5170 25° Northeast 457 526 37,000  Level FlightAware ADS-B
Wed 01:21:50 PM 6.8810 103.5530 25° Northeast 457 526 37,000  Level FlightAware ADS-B
Wed 01:22:26 PM 6.9400 103.5810 25° Northeast 457 526 37,000  Level FlightAware ADS-B
Wed 01:23:15 PM 7.0200 103.6180 25° Northeast 457 526 37,000  Level FlightAware ADS-B
Wed 01:23:52 PM 7.0800 103.6470 26° Northeast 457 526 37,000  Level FlightAware ADS-B
Wed 01:24:33 PM 7.1470 103.6780 25° Northeast 457 526 37,000  Level FlightAware ADS-B
Wed 01:25:20 PM 7.2230 103.7140 25° Northeast 457 526 37,000  Level FlightAware ADS-B
Wed 01:25:59 PM 7.2870 103.7440 25° Northeast 457 526 37,000  Level FlightAware ADS-B
Wed 01:26:46 PM 7.3630 103.7800 25° Northeast 457 526 37,000  Level FlightAware ADS-B
Wed 01:27:23 PM 7.4240 103.8080 24° Northeast 457 526 37,000  Level FlightAware ADS-B
Wed 01:30:00 PM 7.7164 103.9001 17° North  Level Estimated
Wed 01:31:00 PM 7.8281 103.9354 17° North  Level Estimated
Wed 01:31:47 PM 8.0300 104.4400 17° North 453 521 37,000  Level FlightAware ADS-B
Wed 01:32:00 PM 7.9399 103.9706 17° North  Level Estimated
Wed 01:32:50 PM 8.1190 104.5100 38° Northeast 453 521 37,000  Level FlightAware ADS-B
Wed 01:33:26 PM 8.1690 104.5500 38° Northeast 453 521 37,000  Level FlightAware ADS-B
Wed 01:34:28 PM 8.2560 104.6180 38° Northeast 453 521 37,000  Level FlightAware ADS-B
Wed 01:35:04 PM 8.3070 104.6580 38° Northeast 453 521 37,000  Level FlightAware ADS-B
Wed 01:35:39 PM 8.3560 104.6970 38° Northeast 453 521 37,000  Level FlightAware ADS-B
Wed 01:36:40 PM 8.4840 104.7960 37° Northeast 458 527 37,000  Level FlightAware ADS-B
Wed 01:37:52 PM 8.6270 104.9090 38° Northeast 459 528 37,000  Level FlightAware ADS-B
Wed 01:38:31 PM 8.7080 104.9720 38° Northeast 460 529 37,000  Level FlightAware ADS-B
Wed 01:39:13 PM 8.7770 105.0270 38° Northeast 459 528 37,000  Level FlightAware ADS-B
Wed 01:39:56 PM 8.8500 105.0840 38° Northeast 458 527 37,000  Level FlightAware ADS-B
Wed 01:40:36 PM 8.9170 105.1370 38° Northeast 458 527 37,000  Level FlightAware ADS-B
Wed 01:41:18 PM 8.9870 105.1920 38° Northeast 457 526 37,000  Level FlightAware ADS-B
Wed 01:42:02 PM 9.0610 105.2510 38° Northeast 457 526 37,000  Level FlightAware ADS-B
Wed 01:42:44 PM 9.1310 105.3060 38° Northeast 457 526 37,000  Level FlightAware ADS-B
Wed 01:43:24 PM 9.1850 105.3490 38° Northeast 457 526 37,000  Level FlightAware ADS-B
Wed 01:44:02 PM 9.2600 105.4080 38° Northeast 457 526 37,000  Level FlightAware ADS-B
Wed 01:44:50 PM 9.3420 105.4730 38° Northeast 458 527 37,000  Level FlightAware ADS-B
Wed 01:45:32 PM 9.4120 105.5280 38° Northeast 460 529 37,000  Level FlightAware ADS-B
Wed 01:46:10 PM 9.4750 105.5780 38° Northeast 461 531 37,000  Level FlightAware ADS-B
Wed 01:46:54 PM 9.5460 105.6340 38° Northeast 462 532 37,000  Level FlightAware ADS-B
Wed 01:47:34 PM 9.6170 105.6910 38° Northeast 463 533 37,000  Level FlightAware ADS-B
Wed 01:48:17 PM 9.6900 105.7480 38° Northeast 464 534 37,000  Level FlightAware ADS-B
Wed 01:49:00 PM 9.7630 105.8060 38° Northeast 465 535 37,000  Level FlightAware ADS-B
Wed 01:49:38 PM 9.8270 105.8570 38° Northeast 467 537 37,000  Level FlightAware ADS-B
Wed 01:50:00 PM 9.8660 105.8880 38° Northeast 468 539 37,000  Level FlightAware ADS-B
Wed 01:50:58 PM 9.9640 105.9660 38° Northeast 470 541 37,000  Level FlightAware ADS-B
Wed 01:51:42 PM 10.0410 106.0270 38° Northeast 472 543 37,000  Level FlightAware ADS-B
Wed 01:52:20 PM 10.1050 106.0780 38° Northeast 473 544 37,000  Level FlightAware ADS-B
Wed 01:53:03 PM 10.1790 106.1370 38° Northeast 473 544 37,000  Level FlightAware ADS-B
Wed 01:53:42 PM 10.2480 106.1910 38° Northeast 474 545 37,000  Level FlightAware ADS-B
Wed 01:54:30 PM 10.3310 106.2580 38° Northeast 473 544 37,000  Level FlightAware ADS-B
Wed 01:55:10 PM 10.3990 106.3120 38° Northeast 473 544 37,000  Level FlightAware ADS-B
Wed 01:55:52 PM 10.4720 106.3700 38° Northeast 472 543 37,000  Level FlightAware ADS-B
Wed 01:56:34 PM 10.5450 106.4260 37° Northeast 473 544 37,000  Level FlightAware ADS-B
Wed 01:57:14 PM 10.6160 106.4790 36° Northeast 472 543 37,000  Level FlightAware ADS-B
Wed 01:57:58 PM 10.6930 106.5370 37° Northeast 471 542 37,000  Level FlightAware ADS-B
Wed 01:58:40 PM 10.7660 106.5930 37° Northeast 470 541 37,000  Level FlightAware ADS-B
Wed 01:59:18 PM 10.8330 106.6430 36° Northeast 468 539 37,000  Level FlightAware ADS-B
Wed 02:00:05 PM 10.9080 106.7000 37° Northeast 468 539 37,000  Level FlightAware ADS-B
Wed 02:01:15 PM 11.0360 106.7970 37° Northeast 468 539 37,000  Level FlightAware ADS-B
Wed 02:01:57 PM 11.1100 106.8530 37° Northeast 470 541 37,000  Level FlightAware ADS-B
Wed 02:02:36 PM 11.1770 106.9040 37° Northeast 470 541 37,000  Level FlightAware ADS-B
Wed 02:03:22 PM 11.2570 106.9650 37° Northeast 472 543 37,000  Level FlightAware ADS-B
Wed 02:04:04 PM 11.3310 107.0210 37° Northeast 472 543 37,000  Level FlightAware ADS-B
Wed 02:04:44 PM 11.4020 107.0750 37° Northeast 473 544 37,000 222 Level FlightAware ADS-B
Wed 02:05:25 PM 11.4740 107.1300 37° Northeast 472 543 37,300 907 Climbing FlightAware ADS-B
Wed 02:06:10 PM 11.5520 107.1890 37° Northeast 463 533 38,300 1,059 Climbing FlightAware ADS-B
Wed 02:06:50 PM 11.6200 107.2410 37° Northeast 464 534 38,800 538 Climbing FlightAware ADS-B
Wed 02:07:28 PM 11.6860 107.2910 37° Northeast 466 536 39,000 140 Climbing FlightAware ADS-B
Wed 02:08:16 PM 11.7680 107.3540 37° Northeast 465 535 39,000  Level FlightAware ADS-B
Wed 02:08:57 PM 11.8380 107.4070 37° Northeast 465 535 39,000  Level FlightAware ADS-B
Wed 02:09:38 PM 11.9120 107.4640 37° Northeast 465 535 39,000  Level FlightAware ADS-B
Wed 02:10:20 PM 11.9840 107.5190 37° Northeast 465 535 39,000  Level FlightAware ADS-B
Wed 02:10:58 PM 12.0500 107.5700 37° Northeast 466 536 39,000  Level FlightAware ADS-B
Wed 02:11:54 PM 12.1310 107.6320 37° Northeast 466 536 39,000  Level FlightAware ADS-B
Wed 02:12:36 PM 12.2180 107.6980 37° Northeast 467 537 39,000  Level FlightAware ADS-B
Wed 02:13:15 PM 12.2780 107.7440 37° Northeast 467 537 39,000  Level FlightAware ADS-B
Wed 02:13:57 PM 12.3580 107.8050 37° Northeast 467 537 39,000  Level FlightAware ADS-B
Wed 02:14:42 PM 12.4330 107.8630 37° Northeast 467 537 39,000  Level FlightAware ADS-B
Wed 02:15:23 PM 12.5070 107.9200 37° Northeast 467 537 39,000  Level FlightAware ADS-B
Wed 02:16:06 PM 12.5810 107.9770 37° Northeast 467 537 39,000  Level FlightAware ADS-B
Wed 02:16:47 PM 12.6530 108.0320 37° Northeast 467 537 39,000  Level FlightAware ADS-B
Wed 02:17:29 PM 12.7270 108.0890 37° Northeast 467 537 39,000  Level FlightAware ADS-B
Wed 02:18:05 PM 12.7880 108.1360 37° Northeast 467 537 39,000  Level FlightAware ADS-B
Wed 02:18:55 PM 12.8610 108.1930 37° Northeast 467 537 39,000  Level FlightAware ADS-B
Wed 02:19:31 PM 12.9140 108.2340 37° Northeast 467 537 39,000  Level FlightAware ADS-B
Wed 02:20:28 PM 12.9980 108.2980 37° Northeast 467 537 39,000  Level FlightAware ADS-B
Wed 02:21:14 PM 13.0650 108.3510 38° Northeast 467 537 39,000  Level FlightAware ADS-B
Wed 02:21:50 PM 13.1180 108.3910 36° Northeast 467 537 39,000  Level FlightAware ADS-B
Wed 02:22:38 PM 13.1890 108.4460 37° Northeast 467 537 39,000  Level FlightAware ADS-B
Wed 02:23:14 PM 13.2410 108.4870 38° Northeast 467 537 39,000  Level FlightAware ADS-B
Wed 02:24:02 PM 13.3120 108.5410 37° Northeast 467 537 39,000  Level FlightAware ADS-B
Wed 02:24:40 PM 13.3670 108.5840 37° Northeast 467 537 39,000  Level FlightAware ADS-B
Wed 02:25:20 PM 13.4260 108.6300 37° Northeast 467 537 39,000  Level FlightAware ADS-B
Wed 02:26:10 PM 13.4990 108.6870 37° Northeast 467 537 39,000  Level FlightAware ADS-B
Wed 02:26:46 PM 13.5520 108.7280 37° Northeast 467 537 39,000  Level FlightAware ADS-B
Wed 02:27:35 PM 13.6240 108.7830 37° Northeast 467 537 39,000  Level FlightAware ADS-B
Wed 02:30:00 PM 13.8996 108.8489 13° North  Level Estimated
Wed 02:31:00 PM 14.0136 108.8763 13° North  Level Estimated
Wed 02:32:00 PM 14.1276 108.9036 13° North  Level Estimated
Wed 02:33:00 PM 14.2416 108.9310 13° North  Level Estimated
Wed 02:34:00 PM 14.3556 108.9584 13° North  Level Estimated
Wed 02:35:00 PM 14.4697 108.9859 13° North  Level Estimated
Wed 02:36:00 PM 14.5837 109.0133 13° North  Level Estimated
Wed 02:37:00 PM 14.6977 109.0408 13° North  Level Estimated
Wed 02:38:00 PM 14.8117 109.0684 13° North  Level Estimated
Wed 02:39:00 PM 14.9257 109.0959 13° North  Level Estimated
Wed 02:40:00 PM 15.0397 109.1235 13° North  Level Estimated
Wed 02:41:00 PM 15.1537 109.1511 13° North  Level Estimated
Wed 02:42:00 PM 15.2677 109.1787 13° North  Level Estimated
Wed 02:43:00 PM 15.3816 109.2064 13° North  Level Estimated
Wed 02:44:00 PM 15.4956 109.2341 13° North  Level Estimated
Wed 02:45:00 PM 15.6096 109.2618 13° North  Level Estimated
Wed 02:46:00 PM 15.7236 109.2896 13° North  Level Estimated
Wed 02:47:00 PM 15.8376 109.3174 13° North  Level Estimated
Wed 02:48:00 PM 15.9515 109.3452 13° North  Level Estimated
Wed 02:49:00 PM 16.0655 109.3731 13° North  Level Estimated
Wed 02:50:00 PM 16.1794 109.4010 13° North  Level Estimated
Wed 02:51:00 PM 16.2934 109.4289 13° North  Level Estimated
Wed 02:52:00 PM 16.4074 109.4569 13° North  Level Estimated
Wed 02:53:00 PM 16.5213 109.4849 13° North  Level Estimated
Wed 02:54:00 PM 16.6353 109.5129 13° North  Level Estimated
Wed 02:55:00 PM 16.7492 109.5409 13° North  Level Estimated
Wed 02:56:00 PM 16.8631 109.5690 13° North  Level Estimated
Wed 02:57:00 PM 16.9771 109.5971 13° North  Level Estimated
Wed 02:58:00 PM 17.0910 109.6253 13° North  Level Estimated
Wed 02:59:00 PM 17.2049 109.6535 13° North  Level Estimated
Wed 03:00:00 PM 17.3189 109.6817 13° North  Level Estimated
Wed 03:01:00 PM 17.4328 109.7100 13° North  Level Estimated
Wed 03:02:00 PM 17.5467 109.7383 13° North  Level Estimated
Wed 03:03:00 PM 17.6606 109.7666 13° North  Level Estimated
Wed 03:04:00 PM 17.7745 109.7950 13° North  Level Estimated
Wed 03:05:00 PM 17.8884 109.8234 13° North  Level Estimated
Wed 03:06:00 PM 18.0023 109.8518 13° North  Level Estimated
Wed 03:07:00 PM 18.1162 109.8803 13° North  Level Estimated
Wed 03:08:00 PM 18.2301 109.9088 13° North  Level Estimated
Wed 03:09:00 PM 18.3440 109.9374 13° North  Level Estimated
Wed 03:10:00 PM 18.4579 109.9660 13° North  Level Estimated
Wed 03:11:00 PM 18.5718 109.9946 13° North  Level Estimated
Wed 03:12:00 PM 18.6856 110.0232 13° North  Level Estimated
Wed 03:13:00 PM 18.7995 110.0519 13° North  Level Estimated
Wed 03:14:00 PM 18.9134 110.0807 13° North  Level Estimated
Wed 03:15:00 PM 19.0272 110.1095 13° North  Level Estimated
Wed 03:16:00 PM 19.1411 110.1383 13° North  Level Estimated
Wed 03:17:00 PM 19.2549 110.1672 13° North  Level Estimated
Wed 03:18:00 PM 19.3688 110.1961 13° North  Level Estimated
Wed 03:19:00 PM 19.4826 110.2250 13° North  Level Estimated
Wed 03:20:00 PM 19.5965 110.2540 13° North  Level Estimated
Wed 03:21:00 PM 19.7103 110.2830 13° North  Level Estimated
Wed 03:22:00 PM 19.8241 110.3120 14° North  Level Estimated
Wed 03:23:00 PM 19.9380 110.3412 14° North  Level Estimated
Wed 03:24:00 PM 20.0518 110.3703 14° North  Level Estimated
Wed 03:25:00 PM 20.1656 110.3995 14° North  Level Estimated
Wed 03:26:00 PM 20.2794 110.4287 14° North  Level Estimated
Wed 03:26:20 PM 20.3330 112.7190 14° North 498 573 39,000  Level FlightAware ADS-B
Wed 03:27:00 PM 20.3932 110.4580 14° North  Level Estimated
Wed 03:27:01 PM 20.4180 112.7720 30° Northeast 499 574 39,000  Level FlightAware ADS-B
Wed 03:27:45 PM 20.5030 112.8260 31° Northeast 499 574 39,000  Level FlightAware ADS-B
Wed 03:28:27 PM 20.5900 112.8810 31° Northeast 499 574 39,000  Level FlightAware ADS-B
Wed 03:29:07 PM 20.6690 112.9310 31° Northeast 500 575 39,000  Level FlightAware ADS-B
Wed 03:29:48 PM 20.7500 112.9820 30° Northeast 500 575 39,000  Level FlightAware ADS-B
Wed 03:30:44 PM 20.8620 113.0530 31° Northeast 499 574 39,000  Level FlightAware ADS-B
Wed 03:31:29 PM 20.9530 113.1110 31° Northeast 500 575 39,000  Level FlightAware ADS-B
Wed 03:32:09 PM 21.0200 113.1530 30° Northeast 500 575 39,000  Level FlightAware ADS-B
Wed 03:32:52 PM 21.1170 113.2150 31° Northeast 500 575 39,000  Level FlightAware ADS-B
Wed 03:33:33 PM 21.1990 113.2670 31° Northeast 500 575 39,000  Level FlightAware ADS-B
Wed 03:34:15 PM 21.2840 113.3210 31° Northeast 502 578 39,000  Level FlightAware ADS-B
Wed 03:34:58 PM 21.3680 113.3750 31° Northeast 503 579 39,000  Level FlightAware ADS-B
Wed 03:35:41 PM 21.4550 113.4310 31° Northeast 503 579 39,000  Level FlightAware ADS-B
Wed 03:36:19 PM 21.5330 113.4800 30° Northeast 504 580 39,000 -857 Level FlightAware ADS-B
Wed 03:37:05 PM 21.6240 113.5390 31° Northeast 512 589 37,800 -1,295 Descending FlightAware ADS-B
Wed 03:37:47 PM 21.7090 113.5930 31° Northeast 517 595 37,100 -506 Descending FlightAware ADS-B
Wed 03:38:28 PM 21.7880 113.6440 31° Northeast 520 598 37,100  Level FlightAware ADS-B
Wed 03:39:23 PM 21.9080 113.7220 31° Northeast 520 598 37,100  Level FlightAware ADS-B
Wed 03:40:07 PM 21.9980 113.7800 31° Northeast 522 601 37,100  Level FlightAware ADS-B
Wed 03:40:50 PM 22.0860 113.8360 31° Northeast 523 602 37,100  Level FlightAware ADS-B
Wed 03:41:24 PM 22.1580 113.8830 31° Northeast 523 602 37,100  Level FlightAware ADS-B
Wed 03:42:13 PM 22.2590 113.9480 31° Northeast 524 603 37,100  Level FlightAware ADS-B
Wed 03:42:46 PM 22.3270 113.9920 31° Northeast 524 603 37,100  Level FlightAware ADS-B
Wed 03:43:34 PM 22.4310 114.0600 31° Northeast 525 604 37,100  Level FlightAware ADS-B
Wed 03:44:16 PM 22.5220 114.1060 25° Northeast 520 598 37,100  Level FlightAware ADS-B
Wed 03:45:12 PM 22.6500 114.0790 349° North 504 580 37,100  Level FlightAware ADS-B
Wed 03:45:58 PM 22.7460 114.0300 335° Northwest 502 578 37,100  Level FlightAware ADS-B
Wed 03:46:31 PM 22.8130 113.9950 334° Northwest 501 577 37,100  Level FlightAware ADS-B
Wed 03:47:20 PM 22.9190 113.9400 334° Northwest 500 575 37,100  Level FlightAware ADS-B
Wed 03:47:58 PM 22.9970 113.8990 334° Northwest 499 574 37,100  Level FlightAware ADS-B
Wed 03:48:44 PM 23.0940 113.8510 336° Northwest 500 575 37,100  Level FlightAware ADS-B
Wed 03:49:25 PM 23.1830 113.8140 339° North 501 577 37,100  Level FlightAware ADS-B
Wed 03:50:07 PM 23.2730 113.7790 340° North 502 578 37,100  Level FlightAware ADS-B
Wed 03:50:52 PM 23.3350 113.7540 340° North 503 579 37,100  Level FlightAware ADS-B
Wed 03:51:32 PM 23.4580 113.7060 340° North 504 580 37,100  Level FlightAware ADS-B
Wed 03:52:12 PM 23.5450 113.6710 340° North 504 580 37,100  Level FlightAware ADS-B
Wed 03:52:52 PM 23.6350 113.6360 340° North 505 581 37,100  Level FlightAware ADS-B
Wed 03:53:38 PM 23.7400 113.5940 340° North 505 581 37,100  Level FlightAware ADS-B
Wed 03:54:22 PM 23.8370 113.5560 340° North 505 581 37,100  Level FlightAware ADS-B
Wed 03:55:01 PM 23.9200 113.5220 339° North 504 580 37,100  Level FlightAware ADS-B
Wed 03:55:42 PM 24.0120 113.4860 340° North 504 580 37,100  Level FlightAware ADS-B
Wed 03:56:23 PM 24.1000 113.4510 340° North 503 579 37,100  Level FlightAware ADS-B
Wed 03:57:07 PM 24.2010 113.4200 344° North 513 590 37,100  Level FlightAware ADS-B
Wed 03:57:49 PM 24.3030 113.4180 359° North 519 597 37,100  Level FlightAware ADS-B
Wed 03:58:32 PM 24.4020 113.4210 North 520 598 37,100  Level FlightAware ADS-B
Wed 03:59:13 PM 24.5060 113.4240 North 520 598 37,100  Level FlightAware ADS-B
Wed 03:59:56 PM 24.6060 113.4270 North 520 598 37,100  Level FlightAware ADS-B
Wed 04:00:20 PM 24.6650 113.4290 North 520 598 37,100  Level FlightAware ADS-B
Wed 04:01:03 PM 24.7680 113.4320 North 521 600 37,100  Level FlightAware ADS-B
Wed 04:01:47 PM 24.8510 113.4340 North 520 598 37,100  Level FlightAware ADS-B
Wed 04:02:27 PM 24.9710 113.4370 North 520 598 37,100  Level FlightAware ADS-B
Wed 04:03:27 PM 25.1150 113.4410 North 520 598 37,100  Level FlightAware ADS-B
Wed 04:04:07 PM 25.2100 113.4440 North 519 597 37,100  Level FlightAware ADS-B
Wed 04:04:51 PM 25.3190 113.4470 North 519 597 37,100  Level FlightAware ADS-B
Wed 04:05:29 PM 25.4100 113.4580 North 528 608 37,100  Level FlightAware ADS-B
Wed 04:06:13 PM 25.5080 113.5060 24° Northeast 532 612 37,100  Level FlightAware ADS-B
Wed 04:06:59 PM 25.6180 113.5370 14° North 525 604 37,100  Level FlightAware ADS-B
Wed 04:07:37 PM 25.6960 113.5500 North 525 604 37,100  Level FlightAware ADS-B
Wed 04:08:23 PM 25.7900 113.5670 North 525 604 37,100  Level FlightAware ADS-B
Wed 04:09:00 PM 25.8650 113.5800 North 525 604 37,100  Level FlightAware ADS-B
Wed 04:09:47 PM 25.9610 113.5970 North 525 604 37,100  Level FlightAware ADS-B
Wed 04:10:21 PM 26.0300 113.6090 North 525 604 37,100  Level FlightAware ADS-B
Wed 04:11:09 PM 26.1280 113.6260 North 525 604 37,100  Level FlightAware ADS-B
Wed 04:11:44 PM 26.1990 113.6390 North 525 604 37,100  Level FlightAware ADS-B
Wed 04:12:32 PM 26.2970 113.6560 North 525 604 37,100  Level FlightAware ADS-B
Wed 04:13:07 PM 26.3690 113.6690 North 525 604 37,100  Level FlightAware ADS-B
Wed 04:13:55 PM 26.4670 113.6860 North 525 604 37,100  Level FlightAware ADS-B
Wed 04:14:34 PM 26.5460 113.7000 North 525 604 37,100  Level FlightAware ADS-B
Wed 04:15:27 PM 26.6540 113.7190 North 525 604 37,100  Level FlightAware ADS-B
Wed 04:16:19 PM 26.7600 113.7380 North 525 604 37,100  Level FlightAware ADS-B
Wed 04:16:57 PM 26.8380 113.7520 North 525 604 37,100  Level FlightAware ADS-B
Wed 04:19:00 PM 27.0748 113.7958 North  Level Estimated
Wed 04:20:00 PM 27.1903 113.8173 North  Level Estimated
Wed 04:21:00 PM 27.3058 113.8388 North  Level Estimated
Wed 04:22:00 PM 27.4213 113.8603 North  Level Estimated
Wed 04:23:00 PM 27.5368 113.8819 North  Level Estimated
Wed 04:24:00 PM 27.6523 113.9035 North  Level Estimated
Wed 04:25:00 PM 27.7678 113.9251 North  Level Estimated
Wed 04:26:00 PM 27.8832 113.9469 North  Level Estimated
Wed 04:27:00 PM 27.9987 113.9686 North  Level Estimated
Wed 04:28:00 PM 28.1142 113.9904 North  Level Estimated
Wed 04:29:00 PM 28.2297 114.0123 North  Level Estimated
Wed 04:30:00 PM 28.3451 114.0342 North  Level Estimated
Wed 04:31:00 PM 28.4606 114.0561 North  Level Estimated
Wed 04:32:00 PM 28.5761 114.0781 North  Level Estimated
Wed 04:33:00 PM 28.6915 114.1002 10° North  Level Estimated
Wed 04:34:00 PM 28.8070 114.1223 10° North  Level Estimated
Wed 04:35:00 PM 28.9224 114.1444 10° North  Level Estimated
Wed 04:36:00 PM 29.0379 114.1666 10° North  Level Estimated
Wed 04:37:00 PM 29.1533 114.1888 10° North  Level Estimated
Wed 04:38:00 PM 29.2688 114.2111 10° North  Level Estimated
Wed 04:39:00 PM 29.3842 114.2335 10° North  Level Estimated
Wed 04:40:00 PM 29.4996 114.2559 10° North  Level Estimated
Wed 04:41:00 PM 29.6151 114.2783 10° North  Level Estimated
Wed 04:42:00 PM 29.7305 114.3008 10° North  Level Estimated
Wed 04:43:00 PM 29.8459 114.3233 10° North  Level Estimated
Wed 04:44:00 PM 29.9613 114.3459 10° North  Level Estimated
Wed 04:45:00 PM 30.0767 114.3686 10° North  Level Estimated
Wed 04:46:00 PM 30.1922 114.3913 10° North  Level Estimated
Wed 04:47:00 PM 30.3076 114.4140 10° North  Level Estimated
Wed 04:48:00 PM 30.4230 114.4369 10° North  Level Estimated
Wed 04:49:00 PM 30.5384 114.4597 10° North  Level Estimated
Wed 04:50:00 PM 30.6538 114.4827 10° North  Level Estimated
Wed 04:51:00 PM 30.7691 114.5056 10° North  Level Estimated
Wed 04:52:00 PM 30.8845 114.5286 10° North  Level Estimated
Wed 04:53:00 PM 30.9999 114.5517 10° North  Level Estimated
Wed 04:54:00 PM 31.1153 114.5749 10° North  Level Estimated
Wed 04:55:00 PM 31.2307 114.5981 10° North  Level Estimated
Wed 04:56:00 PM 31.3460 114.6213 10° North  Level Estimated
Wed 04:57:00 PM 31.4614 114.6446 10° North  Level Estimated
Wed 04:58:00 PM 31.5768 114.6680 10° North  Level Estimated
Wed 04:59:00 PM 31.6921 114.6914 10° North  Level Estimated
Wed 05:00:00 PM 31.8075 114.7149 10° North  Level Estimated
Wed 05:01:00 PM 31.9228 114.7385 10° North  Level Estimated
Wed 05:02:00 PM 32.0382 114.7621 10° North  Level Estimated
Wed 05:03:00 PM 32.1535 114.7857 10° North  Level Estimated
Wed 05:04:00 PM 32.2688 114.8094 10° North  Level Estimated
Wed 05:05:00 PM 32.3842 114.8332 10° North  Level Estimated
Wed 05:06:00 PM 32.4995 114.8571 10° North  Level Estimated
Wed 05:07:00 PM 32.6148 114.8810 10° North  Level Estimated
Wed 05:08:00 PM 32.7301 114.9049 10° North  Level Estimated
Wed 05:09:00 PM 32.8455 114.9290 10° North  Level Estimated
Wed 05:10:00 PM 32.9608 114.9531 10° North  Level Estimated
Wed 05:11:00 PM 33.0761 114.9772 10° North  Level Estimated
Wed 05:12:00 PM 33.1914 115.0014 10° North  Level Estimated
Wed 05:13:00 PM 33.3067 115.0257 10° North  Level Estimated
Wed 05:14:00 PM 33.4220 115.0501 10° North  Level Estimated
Wed 05:15:00 PM 33.5372 115.0745 10° North  Level Estimated
Wed 05:16:00 PM 33.6525 115.0990 10° North  Level Estimated
Wed 05:17:00 PM 33.7678 115.1235 10° North  Level Estimated
Wed 05:18:00 PM 33.8831 115.1481 10° North  Level Estimated
Wed 05:19:00 PM 33.9983 115.1728 10° North  Level Estimated
Wed 05:20:00 PM 34.1136 115.1975 10° North  Level Estimated
Wed 05:21:00 PM 34.2289 115.2223 10° North  Level Estimated
Wed 05:22:00 PM 34.3441 115.2472 10° North  Level Estimated
Wed 05:23:00 PM 34.4594 115.2721 10° North  Level Estimated
Wed 05:24:00 PM 34.5746 115.2972 10° North  Level Estimated
Wed 05:25:00 PM 34.6898 115.3222 10° North  Level Estimated
Wed 05:26:00 PM 34.8051 115.3474 10° North  Level Estimated
Wed 05:27:00 PM 34.9203 115.3726 10° North  Level Estimated
Wed 05:28:00 PM 35.0355 115.3979 10° North  Level Estimated
Wed 05:29:00 PM 35.1507 115.4233 10° North  Level Estimated
Wed 05:30:00 PM 35.2659 115.4487 10° North  Level Estimated
Wed 05:31:00 PM 35.3811 115.4742 10° North  Level Estimated
Wed 05:32:00 PM 35.4963 115.4998 10° North  Level Estimated
Wed 05:33:00 PM 35.6115 115.5255 10° North  Level Estimated
Wed 05:34:00 PM 35.7267 115.5512 10° North  Level Estimated
Wed 05:35:00 PM 35.8419 115.5770 10° North  Level Estimated
Wed 05:36:00 PM 35.9571 115.6029 10° North  Level Estimated
Wed 05:37:00 PM 36.0722 115.6288 10° North  Level Estimated
Wed 05:38:00 PM 36.1874 115.6549 10° North  Level Estimated
Wed 05:39:00 PM 36.3026 115.6810 10° North  Level Estimated
Wed 05:40:00 PM 36.4177 115.7072 10° North  Level Estimated
Wed 05:41:00 PM 36.5329 115.7334 10° North  Level Estimated
Wed 05:42:00 PM 36.6480 115.7598 10° North  Level Estimated
Wed 05:43:00 PM 36.7631 115.7862 10° North  Level Estimated
Wed 05:44:00 PM 36.8783 115.8127 10° North  Level Estimated
Wed 05:45:00 PM 36.9934 115.8393 10° North  Level Estimated
Wed 05:46:00 PM 37.1085 115.8659 10° North  Level Estimated
Wed 05:47:00 PM 37.2236 115.8927 10° North  Level Estimated
Wed 05:48:00 PM 37.3387 115.9195 10° North  Level Estimated
Wed 05:49:00 PM 37.4538 115.9464 11° North  Level Estimated
Wed 05:50:00 PM 37.5689 115.9734 11° North  Level Estimated
Wed 05:51:00 PM 37.6840 116.0005 11° North  Level Estimated
Wed 05:52:00 PM 37.7991 116.0276 11° North  Level Estimated
Wed 05:53:00 PM 37.9142 116.0549 11° North  Level Estimated
Wed 05:54:00 PM 38.0292 116.0822 11° North  Level Estimated
Wed 05:55:00 PM 38.1443 116.1096 11° North  Level Estimated
Wed 05:56:00 PM 38.2594 116.1371 11° North  Level Estimated
Wed 05:57:00 PM 38.3744 116.1647 11° North  Level Estimated
Wed 05:58:00 PM 38.4894 116.1924 11° North  Level Estimated
Wed 05:59:00 PM 38.6045 116.2201 11° North  Level Estimated
Wed 06:00:00 PM 38.7195 116.2480 11° North  Level Estimated
Wed 06:01:00 PM 38.8345 116.2759 11° North  Level Estimated
Wed 06:02:00 PM 38.9496 116.3039 11° North  Level Estimated
Wed 06:03:00 PM 39.0646 116.3321 11° North  Level Estimated
Wed 06:04:00 PM 39.1796 116.3603 11° North  Level Estimated
Wed 06:05:00 PM 39.2946 116.3886 11° North  Level Estimated
Wed 06:06:00 PM 39.4096 116.4170 11° North  Level Estimated
Wed 06:07:00 PM 39.5245 116.4455 11° North  Level Estimated
Wed 06:08:00 PM 39.6395 116.4741 11° North  Level Estimated
Wed 06:09:00 PM 39.7545 116.5028 11° North  Level Estimated
Wed 06:10:00 PM 39.8694 116.5316 11° North  Level Estimated
Wed 06:11:00 PM 39.9844 116.5604 11° North  Level Estimated
Wed 06:12:00 PM 40.0801 116.5846 11° North  Level Estimated
Wed 06:13:00 PM 40.0801 116.5846 288° West  Level Estimated
Wed 06:14:00 PM 40.0801 116.5846 288° West  Level Estimated
Wed 06:15:00 PM 40.0801 116.5846 288° West  Level Estimated
Wed 06:16:00 PM 40.0801 116.5846 288° West  Level Estimated
Wed 06:17:00 PM 40.0801 116.5846 288° West  Level Estimated
Wed 06:18:00 PM 40.0801 116.5846 288° West  Level Estimated
Wed 06:19:00 PM 40.0801 116.5846 288° West  Level Estimated
Wed 06:20:00 PM 40.0801 116.5846 288° West  Level Estimated
Wed 06:21:00 PM 40.0801 116.5846 288° West  Level Estimated
Wed 06:22:00 PM 40.0801 116.5846 288° West  Level Estimated
Wed 06:23:00 PM 40.0801 116.5846 288° West  Level Estimated
Wed 06:24:00 PM 40.0801 116.5846 288° West  Level Estimated
Wed 06:25:00 PM 40.0801 116.5846 288° West  Level Estimated

Login

Don't have an account? Register now (free) for customized features, flight alerts, and more!